Aeroporto :
LOGIN :

Iscrizione | Disclaimer

   EN    FR    IT 

 










Sommario :    VFR   VFR Marginale   IFR   IFR Intensivo   IFR Molto Intensivo
Visibilità : 
Base nubi : 
>= 8 km
>= 3000ft
5 / 8 km
1000 / 3000 ft
1500m / 5 km
500 / 1000 ft
800 / 1500m
200 / 500 ft
< 800m
< 200 ft
Simboli :   Temporali  Nebbia  Neve Forte  Precipitazioni Forti  Vento > 20 kt
SIGMETs :   Varie  Temporali  Ghiacco  Turbolenza  Onda orograficha  Ceneri Vulcaniche







- Altitudine del aeroporto : 370 ft


EBBE - Beauvechain AB

ULTIMO METAR :
  • 232155Z AUTO 03006KT 6000 BKN019/// BKN027/// 09/08 Q1030 WHT

METARs OBSOLETI :
  • 232148Z AUTO 02005KT 4600 BR BKN018/// BKN031/// 09/08 Q1030 GRN
  • 232113Z AUTO 02004KT 3400 BR FEW011/// SCT017/// BKN021/// 09/08 Q1030 YLO
  • 232055Z AUTO 04005KT 3800 BR SCT010/// BKN013/// OVC016/// 09/08 Q1031 GRN
  • 231955Z AUTO 03009KT 2100 BR SCT003/// BKN006/// OVC017/// 09/08 Q1031 YLO
  • 231934Z AUTO 02004KT 1500 BR FEW007/// BKN014/// BKN021/// 09/08 Q1031 AMB

Previsioni scadute.
Nessun NOTAM noto per questo aeroporto.



MetMap, La meteo Aeronautica in un colpo d'occhio ! - Copyright ORBIFLY Dicembre 2007 - Disclaimer

ORBIFLY MET'MAP TEAM :

Programmazione e sviluppo : Alexandra Zaïnal
Concezione e sviluppo : Baudouin d'Aumeries
Co-Programmazione e sviluppo : Marc-Olivier Méhu
Supporto tecnico e logistico : Manuel Goepfert
Aiuto per la traduzione : Arnaldo La Scala

Contatto : metmap@orbifly.com




FONTI E CREDITI :

   NOAA